sensor_id;sensor_type;location;lat;lon;timestamp;pressure;altitude;pressure_sealevel;temperature;humidity
11648;BME280;5880;52.342;9.662;2022-12-10T00:01:51;100227.00;;;5.38;59.46
11648;BME280;5880;52.342;9.662;2022-12-10T00:04:18;100226.16;;;5.38;59.52
11648;BME280;5880;52.342;9.662;2022-12-10T00:06:44;100228.25;;;5.36;59.60
11648;BME280;5880;52.342;9.662;2022-12-10T00:09:17;100223.25;;;5.33;59.67
11648;BME280;5880;52.342;9.662;2022-12-10T00:11:43;100220.09;;;5.29;59.38
11648;BME280;5880;52.342;9.662;2022-12-10T00:14:11;100228.66;;;5.26;59.70
11648;BME280;5880;52.342;9.662;2022-12-10T00:16:38;100227.19;;;5.23;59.81
11648;BME280;5880;52.342;9.662;2022-12-10T00:19:04;100225.31;;;5.24;59.71
11648;BME280;5880;52.342;9.662;2022-12-10T00:21:33;100230.75;;;5.24;59.96
11648;BME280;5880;52.342;9.662;2022-12-10T00:24:01;100234.50;;;5.23;59.86
11648;BME280;5880;52.342;9.662;2022-12-10T00:26:36;100229.09;;;5.23;59.41
11648;BME280;5880;52.342;9.662;2022-12-10T00:29:04;100235.13;;;5.18;59.64
11648;BME280;5880;52.342;9.662;2022-12-10T00:31:34;100237.41;;;5.15;59.94
11648;BME280;5880;52.342;9.662;2022-12-10T00:34:04;100238.88;;;5.11;59.90
11648;BME280;5880;52.342;9.662;2022-12-10T00:36:47;100236.16;;;5.11;59.88
11648;BME280;5880;52.342;9.662;2022-12-10T00:39:17;100225.31;;;5.04;60.01
11648;BME280;5880;52.342;9.662;2022-12-10T00:41:43;100227.38;;;5.02;59.92
11648;BME280;5880;52.342;9.662;2022-12-10T00:44:10;100236.97;;;5.04;60.20
11648;BME280;5880;52.342;9.662;2022-12-10T00:46:35;100238.03;;;5.03;60.26
11648;BME280;5880;52.342;9.662;2022-12-10T00:49:01;100240.31;;;5.06;60.18
11648;BME280;5880;52.342;9.662;2022-12-10T00:51:28;100243.66;;;5.08;60.45
11648;BME280;5880;52.342;9.662;2022-12-10T00:53:57;100247.00;;;5.11;60.02
11648;BME280;5880;52.342;9.662;2022-12-10T00:56:27;100245.31;;;5.10;60.11
11648;BME280;5880;52.342;9.662;2022-12-10T00:58:54;100247.00;;;5.11;60.51
11648;BME280;5880;52.342;9.662;2022-12-10T01:01:35;100248.47;;;5.13;60.29
11648;BME280;5880;52.342;9.662;2022-12-10T01:04:15;100255.34;;;5.16;59.99
11648;BME280;5880;52.342;9.662;2022-12-10T01:06:45;100249.09;;;5.15;60.11
11648;BME280;5880;52.342;9.662;2022-12-10T01:09:15;100252.41;;;5.17;60.12
11648;BME280;5880;52.342;9.662;2022-12-10T01:11:44;100253.91;;;5.20;60.18
11648;BME280;5880;52.342;9.662;2022-12-10T01:14:18;100259.72;;;5.23;60.00
11648;BME280;5880;52.342;9.662;2022-12-10T01:16:45;100262.00;;;5.26;60.45
11648;BME280;5880;52.342;9.662;2022-12-10T01:19:11;100258.03;;;5.29;60.37
11648;BME280;5880;52.342;9.662;2022-12-10T01:21:37;100253.25;;;5.31;60.01
11648;BME280;5880;52.342;9.662;2022-12-10T01:24:03;100265.56;;;5.34;59.84
11648;BME280;5880;52.342;9.662;2022-12-10T01:26:32;100259.13;;;5.35;60.23
11648;BME280;5880;52.342;9.662;2022-12-10T01:28:59;100271.84;;;5.34;59.75
11648;BME280;5880;52.342;9.662;2022-12-10T01:31:35;100271.59;;;5.36;59.99
11648;BME280;5880;52.342;9.662;2022-12-10T01:34:02;100276.00;;;5.37;59.89
11648;BME280;5880;52.342;9.662;2022-12-10T01:36:35;100273.94;;;5.39;60.05
11648;BME280;5880;52.342;9.662;2022-12-10T01:39:04;100268.28;;;5.40;59.95
11648;BME280;5880;52.342;9.662;2022-12-10T01:41:36;100275.16;;;5.43;60.09
11648;BME280;5880;52.342;9.662;2022-12-10T01:46:57;100276.22;;;5.42;59.69
11648;BME280;5880;52.342;9.662;2022-12-10T01:49:33;100279.13;;;5.40;59.68
11648;BME280;5880;52.342;9.662;2022-12-10T01:51:59;100276.41;;;5.34;60.15
11648;BME280;5880;52.342;9.662;2022-12-10T01:54:33;100282.44;;;5.36;59.80
11648;BME280;5880;52.342;9.662;2022-12-10T01:57:06;100271.81;;;5.27;60.34
11648;BME280;5880;52.342;9.662;2022-12-10T01:59:35;100269.31;;;5.26;60.05
11648;BME280;5880;52.342;9.662;2022-12-10T02:05:41;100281.59;;;5.28;59.82
11648;BME280;5880;52.342;9.662;2022-12-10T02:08:43;100269.09;;;5.21;59.89
11648;BME280;5880;52.342;9.662;2022-12-10T02:11:48;100276.59;;;5.19;59.94
11648;BME280;5880;52.342;9.662;2022-12-10T02:17:13;100282.22;;;5.17;60.13
11648;BME280;5880;52.342;9.662;2022-12-10T02:22:34;100266.78;;;5.11;60.20
11648;BME280;5880;52.342;9.662;2022-12-10T02:25:04;100270.53;;;5.17;60.20
11648;BME280;5880;52.342;9.662;2022-12-10T02:28:02;100265.75;;;5.19;59.75
11648;BME280;5880;52.342;9.662;2022-12-10T02:30:32;100263.47;;;5.16;60.29
11648;BME280;5880;52.342;9.662;2022-12-10T02:33:03;100262.03;;;5.20;60.44
11648;BME280;5880;52.342;9.662;2022-12-10T02:35:33;100260.78;;;5.22;60.22
11648;BME280;5880;52.342;9.662;2022-12-10T02:38:12;100257.84;;;5.24;59.96
11648;BME280;5880;52.342;9.662;2022-12-10T02:40:48;100254.09;;;5.25;60.29
11648;BME280;5880;52.342;9.662;2022-12-10T02:43:15;100252.41;;;5.24;60.13
11648;BME280;5880;52.342;9.662;2022-12-10T02:45:43;100258.03;;;5.29;60.39
11648;BME280;5880;52.342;9.662;2022-12-10T02:48:10;100257.22;;;5.28;60.34
11648;BME280;5880;52.342;9.662;2022-12-10T02:50:37;100268.91;;;5.36;60.30
11648;BME280;5880;52.342;9.662;2022-12-10T02:53:03;100270.34;;;5.38;59.79
11648;BME280;5880;52.342;9.662;2022-12-10T02:59:06;100255.16;;;5.37;59.76
11648;BME280;5880;52.342;9.662;2022-12-10T03:02:02;100271.63;;;5.42;60.19
11648;BME280;5880;52.342;9.662;2022-12-10T03:04:33;100274.56;;;5.41;59.97
11648;BME280;5880;52.342;9.662;2022-12-10T03:07:17;100267.88;;;5.43;60.06
11648;BME280;5880;52.342;9.662;2022-12-10T03:10:04;100270.59;;;5.43;60.03
11648;BME280;5880;52.342;9.662;2022-12-10T03:12:40;100273.06;;;5.45;59.98
11648;BME280;5880;52.342;9.662;2022-12-10T03:15:10;100265.78;;;5.45;60.13
11648;BME280;5880;52.342;9.662;2022-12-10T03:17:39;100262.03;;;5.46;59.86
11648;BME280;5880;52.342;9.662;2022-12-10T03:20:13;100273.50;;;5.48;60.24
11648;BME280;5880;52.342;9.662;2022-12-10T03:22:43;100272.47;;;5.49;60.14
11648;BME280;5880;52.342;9.662;2022-12-10T03:25:14;100264.31;;;5.49;59.90
11648;BME280;5880;52.342;9.662;2022-12-10T03:27:43;100266.00;;;5.50;59.99
11648;BME280;5880;52.342;9.662;2022-12-10T03:30:10;100267.88;;;5.50;59.81
11648;BME280;5880;52.342;9.662;2022-12-10T03:32:37;100268.09;;;5.48;59.41
11648;BME280;5880;52.342;9.662;2022-12-10T03:35:04;100269.75;;;5.49;59.78
11648;BME280;5880;52.342;9.662;2022-12-10T03:37:31;100264.31;;;5.49;59.72
11648;BME280;5880;52.342;9.662;2022-12-10T03:39:58;100267.03;;;5.49;59.87
11648;BME280;5880;52.342;9.662;2022-12-10T03:42:24;100266.84;;;5.51;59.90
11648;BME280;5880;52.342;9.662;2022-12-10T03:44:52;100252.03;;;5.47;59.94
11648;BME280;5880;52.342;9.662;2022-12-10T03:47:19;100258.50;;;5.53;59.94
11648;BME280;5880;52.342;9.662;2022-12-10T03:49:45;100267.66;;;5.52;59.72
11648;BME280;5880;52.342;9.662;2022-12-10T03:52:11;100267.66;;;5.52;60.11
11648;BME280;5880;52.342;9.662;2022-12-10T03:54:38;100262.25;;;5.52;59.88
11648;BME280;5880;52.342;9.662;2022-12-10T03:57:03;100266.84;;;5.51;59.98
11648;BME280;5880;52.342;9.662;2022-12-10T03:59:29;100269.75;;;5.49;59.45
11648;BME280;5880;52.342;9.662;2022-12-10T04:01:55;100262.47;;;5.43;59.59
11648;BME280;5880;52.342;9.662;2022-12-10T04:04:21;100269.34;;;5.46;59.74
11648;BME280;5880;52.342;9.662;2022-12-10T04:06:47;100269.75;;;5.43;59.60
11648;BME280;5880;52.342;9.662;2022-12-10T04:09:14;100271.00;;;5.40;59.70
11648;BME280;5880;52.342;9.662;2022-12-10T04:11:41;100277.66;;;5.38;59.46
11648;BME280;5880;52.342;9.662;2022-12-10T04:14:12;100278.09;;;5.35;59.38
11648;BME280;5880;52.342;9.662;2022-12-10T04:16:56;100279.53;;;5.31;59.38
11648;BME280;5880;52.342;9.662;2022-12-10T04:19:23;100284.94;;;5.31;59.42
11648;BME280;5880;52.342;9.662;2022-12-10T04:21:49;100286.84;;;5.30;59.48
11648;BME280;5880;52.342;9.662;2022-12-10T04:24:35;100276.41;;;5.27;59.49
11648;BME280;5880;52.342;9.662;2022-12-10T04:27:28;100277.66;;;5.18;59.04
11648;BME280;5880;52.342;9.662;2022-12-10T04:29:57;100282.22;;;5.17;59.54
11648;BME280;5880;52.342;9.662;2022-12-10T04:32:26;100277.84;;;5.16;59.51
11648;BME280;5880;52.342;9.662;2022-12-10T04:34:52;100270.75;;;5.08;59.34
11648;BME280;5880;52.342;9.662;2022-12-10T04:37:19;100286.78;;;5.10;59.77
11648;BME280;5880;52.342;9.662;2022-12-10T04:39:45;100275.94;;;5.03;59.37
11648;BME280;5880;52.342;9.662;2022-12-10T04:42:11;100290.31;;;5.04;59.66
11648;BME280;5880;52.342;9.662;2022-12-10T04:44:38;100283.00;;;4.98;59.24
11648;BME280;5880;52.342;9.662;2022-12-10T04:47:05;100288.00;;;5.01;59.43
11648;BME280;5880;52.342;9.662;2022-12-10T04:49:32;100281.75;;;5.00;59.57
11648;BME280;5880;52.342;9.662;2022-12-10T04:51:58;100284.69;;;4.99;59.61
11648;BME280;5880;52.342;9.662;2022-12-10T04:54:24;100275.72;;;4.92;59.48
11648;BME280;5880;52.342;9.662;2022-12-10T04:56:50;100286.31;;;4.93;59.56
11648;BME280;5880;52.342;9.662;2022-12-10T04:59:15;100280.25;;;4.91;59.58
11648;BME280;5880;52.342;9.662;2022-12-10T05:01:42;100286.31;;;4.93;59.54
11648;BME280;5880;52.342;9.662;2022-12-10T05:04:11;100285.69;;;4.91;59.44
11648;BME280;5880;52.342;9.662;2022-12-10T05:06:37;100291.50;;;4.88;59.28
11648;BME280;5880;52.342;9.662;2022-12-10T05:09:03;100289.84;;;4.87;59.63
11648;BME280;5880;52.342;9.662;2022-12-10T05:11:31;100291.72;;;4.86;59.75
11648;BME280;5880;52.342;9.662;2022-12-10T05:13:57;100290.88;;;4.86;59.79
11648;BME280;5880;52.342;9.662;2022-12-10T05:16:26;100289.84;;;4.87;59.53
11648;BME280;5880;52.342;9.662;2022-12-10T05:18:54;100293.16;;;4.89;59.64
11648;BME280;5880;52.342;9.662;2022-12-10T05:21:22;100291.97;;;4.92;59.48
11648;BME280;5880;52.342;9.662;2022-12-10T05:23:51;100288.19;;;4.93;59.80
11648;BME280;5880;52.342;9.662;2022-12-10T05:26:23;100289.03;;;4.93;59.44
11648;BME280;5880;52.342;9.662;2022-12-10T05:28:55;100288.38;;;4.91;59.58
11648;BME280;5880;52.342;9.662;2022-12-10T05:31:28;100282.97;;;4.91;59.33
11648;BME280;5880;52.342;9.662;2022-12-10T05:33:56;100290.28;;;4.91;59.59
11648;BME280;5880;52.342;9.662;2022-12-10T05:36:26;100287.75;;;4.89;59.57
11648;BME280;5880;52.342;9.662;2022-12-10T05:38:54;100288.63;;;4.90;59.42
11648;BME280;5880;52.342;9.662;2022-12-10T05:41:25;100285.47;;;4.86;59.36
11648;BME280;5880;52.342;9.662;2022-12-10T05:43:54;100287.34;;;4.85;59.47
11648;BME280;5880;52.342;9.662;2022-12-10T05:46:23;100299.00;;;4.86;59.55
11648;BME280;5880;52.342;9.662;2022-12-10T05:48:50;100291.50;;;4.81;59.66
11648;BME280;5880;52.342;9.662;2022-12-10T05:51:19;100303.41;;;4.87;59.62
11648;BME280;5880;52.342;9.662;2022-12-10T05:53:46;100302.34;;;4.88;59.66
11648;BME280;5880;52.342;9.662;2022-12-10T05:56:16;100302.97;;;4.90;59.72
11648;BME280;5880;52.342;9.662;2022-12-10T05:58:46;100302.78;;;4.92;59.26
11648;BME280;5880;52.342;9.662;2022-12-10T06:01:16;100298.59;;;4.89;59.68
11648;BME280;5880;52.342;9.662;2022-12-10T06:03:42;100312.56;;;4.93;59.46
11648;BME280;5880;52.342;9.662;2022-12-10T06:06:09;100299.03;;;4.93;59.60
11648;BME280;5880;52.342;9.662;2022-12-10T06:08:36;100314.44;;;4.92;59.53
11648;BME280;5880;52.342;9.662;2022-12-10T06:11:07;100304.88;;;4.90;59.59
11648;BME280;5880;52.342;9.662;2022-12-10T06:13:35;100321.09;;;4.96;59.48
11648;BME280;5880;52.342;9.662;2022-12-10T06:16:10;100318.03;;;4.99;59.54
11648;BME280;5880;52.342;9.662;2022-12-10T06:18:37;100310.91;;;4.98;59.44
11648;BME280;5880;52.342;9.662;2022-12-10T06:21:12;100319.91;;;4.99;59.44
11648;BME280;5880;52.342;9.662;2022-12-10T06:23:39;100314.66;;;4.97;59.11
11648;BME280;5880;52.342;9.662;2022-12-10T06:26:15;100316.72;;;4.89;59.01
11648;BME280;5880;52.342;9.662;2022-12-10T06:28:44;100324.66;;;4.90;59.33
11648;BME280;5880;52.342;9.662;2022-12-10T06:31:10;100332.56;;;4.85;59.07
11648;BME280;5880;52.342;9.662;2022-12-10T06:33:36;100330.44;;;4.80;59.49
11648;BME280;5880;52.342;9.662;2022-12-10T06:36:09;100341.91;;;4.82;59.43
11648;BME280;5880;52.342;9.662;2022-12-10T06:38:35;100332.94;;;4.75;59.39
11648;BME280;5880;52.342;9.662;2022-12-10T06:41:09;100340.22;;;4.81;59.48
11648;BME280;5880;52.342;9.662;2022-12-10T06:43:36;100335.63;;;4.82;59.33
11648;BME280;5880;52.342;9.662;2022-12-10T06:46:17;100336.50;;;4.82;59.12
11648;BME280;5880;52.342;9.662;2022-12-10T06:48:43;100339.41;;;4.81;59.29
11648;BME280;5880;52.342;9.662;2022-12-10T06:51:11;100342.72;;;4.76;59.07
11648;BME280;5880;52.342;9.662;2022-12-10T06:53:38;100342.25;;;4.73;59.06
11648;BME280;5880;52.342;9.662;2022-12-10T06:56:06;100335.78;;;4.67;59.38
11648;BME280;5880;52.342;9.662;2022-12-10T06:58:33;100346.63;;;4.67;59.27
11648;BME280;5880;52.342;9.662;2022-12-10T07:01:09;100348.91;;;4.70;59.17
11648;BME280;5880;52.342;9.662;2022-12-10T07:03:35;100347.06;;;4.71;59.11
11648;BME280;5880;52.342;9.662;2022-12-10T07:06:03;100337.84;;;4.65;59.11
11648;BME280;5880;52.342;9.662;2022-12-10T07:08:29;100348.53;;;4.73;59.18
11648;BME280;5880;52.342;9.662;2022-12-10T07:10:55;100339.56;;;4.73;58.93
11648;BME280;5880;52.342;9.662;2022-12-10T07:13:22;100349.38;;;4.74;58.99
11648;BME280;5880;52.342;9.662;2022-12-10T07:15:48;100351.44;;;4.72;59.09
11648;BME280;5880;52.342;9.662;2022-12-10T07:18:13;100358.50;;;4.73;59.12
11648;BME280;5880;52.342;9.662;2022-12-10T07:20:39;100357.91;;;4.71;59.08
11648;BME280;5880;52.342;9.662;2022-12-10T07:23:05;100365.75;;;4.65;59.08
11648;BME280;5880;52.342;9.662;2022-12-10T07:25:32;100360.13;;;4.60;58.92
11648;BME280;5880;52.342;9.662;2022-12-10T07:27:57;100358.22;;;4.54;59.14
11648;BME280;5880;52.342;9.662;2022-12-10T07:30:23;100364.84;;;4.52;59.12
11648;BME280;5880;52.342;9.662;2022-12-10T07:32:49;100365.44;;;4.47;59.07
11648;BME280;5880;52.342;9.662;2022-12-10T07:35:14;100372.34;;;4.50;58.77
11648;BME280;5880;52.342;9.662;2022-12-10T07:37:40;100362.72;;;4.47;58.79
11648;BME280;5880;52.342;9.662;2022-12-10T07:40:07;100380.66;;;4.48;58.91
11648;BME280;5880;52.342;9.662;2022-12-10T07:42:32;100380.03;;;4.46;59.25
11648;BME280;5880;52.342;9.662;2022-12-10T07:44:58;100384.78;;;4.44;58.97
11648;BME280;5880;52.342;9.662;2022-12-10T07:47:24;100386.22;;;4.40;59.07
11648;BME280;5880;52.342;9.662;2022-12-10T07:49:49;100392.22;;;4.35;59.03
11648;BME280;5880;52.342;9.662;2022-12-10T07:52:15;100385.13;;;4.34;59.33
11648;BME280;5880;52.342;9.662;2022-12-10T07:54:41;100391.19;;;4.36;59.15
11648;BME280;5880;52.342;9.662;2022-12-10T07:57:06;100396.44;;;4.38;59.10
11648;BME280;5880;52.342;9.662;2022-12-10T07:59:32;100394.53;;;4.38;59.15
11648;BME280;5880;52.342;9.662;2022-12-10T08:01:58;100396.84;;;4.41;59.40
11648;BME280;5880;52.342;9.662;2022-12-10T08:04:23;100383.50;;;4.40;59.12
11648;BME280;5880;52.342;9.662;2022-12-10T08:06:49;100391.88;;;4.45;59.21
11648;BME280;5880;52.342;9.662;2022-12-10T08:09:15;100393.56;;;4.46;59.11
11648;BME280;5880;52.342;9.662;2022-12-10T08:11:40;100386.47;;;4.45;59.25
11648;BME280;5880;52.342;9.662;2022-12-10T08:14:06;100395.03;;;4.49;58.90
11648;BME280;5880;52.342;9.662;2022-12-10T08:16:32;100390.66;;;4.48;58.80
11648;BME280;5880;52.342;9.662;2022-12-10T08:19:00;100398.38;;;4.51;59.10
11648;BME280;5880;52.342;9.662;2022-12-10T08:21:29;100389.00;;;4.53;59.25
11648;BME280;5880;52.342;9.662;2022-12-10T08:23:55;100397.59;;;4.57;59.34
11648;BME280;5880;52.342;9.662;2022-12-10T08:26:29;100399.06;;;4.59;58.99
11648;BME280;5880;52.342;9.662;2022-12-10T08:28:57;100409.66;;;4.61;59.01
11648;BME280;5880;52.342;9.662;2022-12-10T08:31:25;100405.94;;;4.62;58.95
11648;BME280;5880;52.342;9.662;2022-12-10T08:33:52;100410.31;;;4.63;58.83
11648;BME280;5880;52.342;9.662;2022-12-10T08:36:19;100406.53;;;4.57;58.68
11648;BME280;5880;52.342;9.662;2022-12-10T08:38:45;100405.72;;;4.57;58.91
11648;BME280;5880;52.342;9.662;2022-12-10T08:41:15;100409.66;;;4.54;58.96
11648;BME280;5880;52.342;9.662;2022-12-10T08:43:41;100411.72;;;4.52;58.78
11648;BME280;5880;52.342;9.662;2022-12-10T08:46:08;100413.78;;;4.50;58.89
11648;BME280;5880;52.342;9.662;2022-12-10T08:48:35;100419.19;;;4.50;59.11
11648;BME280;5880;52.342;9.662;2022-12-10T08:51:02;100425.44;;;4.51;58.91
11648;BME280;5880;52.342;9.662;2022-12-10T08:53:28;100416.50;;;4.50;59.03
11648;BME280;5880;52.342;9.662;2022-12-10T08:55:55;100413.38;;;4.53;59.32
11648;BME280;5880;52.342;9.662;2022-12-10T08:58:21;100416.91;;;4.54;58.95
11648;BME280;5880;52.342;9.662;2022-12-10T09:00:48;100417.13;;;4.52;58.86
11648;BME280;5880;52.342;9.662;2022-12-10T09:03:14;100411.72;;;4.52;59.21
11648;BME280;5880;52.342;9.662;2022-12-10T09:05:40;100420.25;;;4.56;59.27
11648;BME280;5880;52.342;9.662;2022-12-10T09:08:06;100415.84;;;4.48;58.85
11648;BME280;5880;52.342;9.662;2022-12-10T09:10:32;100421.09;;;4.56;59.25
11648;BME280;5880;52.342;9.662;2022-12-10T09:12:58;100433.19;;;4.60;59.09
11648;BME280;5880;52.342;9.662;2022-12-10T09:15:24;100434.50;;;4.64;59.21
11648;BME280;5880;52.342;9.662;2022-12-10T09:17:50;100443.03;;;4.68;59.30
11648;BME280;5880;52.342;9.662;2022-12-10T09:20:15;100443.69;;;4.70;59.37
11648;BME280;5880;52.342;9.662;2022-12-10T09:22:41;100443.94;;;4.75;59.15
11648;BME280;5880;52.342;9.662;2022-12-10T09:25:08;100446.25;;;4.78;59.07
11648;BME280;5880;52.342;9.662;2022-12-10T09:27:36;100443.31;;;4.80;59.08
11648;BME280;5880;52.342;9.662;2022-12-10T09:30:04;100440.44;;;4.81;59.04
11648;BME280;5880;52.342;9.662;2022-12-10T09:32:30;100442.72;;;4.84;59.24
11648;BME280;5880;52.342;9.662;2022-12-10T09:34:55;100447.53;;;4.89;59.35
11648;BME280;5880;52.342;9.662;2022-12-10T09:37:21;100441.28;;;4.89;59.17
11648;BME280;5880;52.342;9.662;2022-12-10T09:39:47;100450.28;;;4.96;59.07
11648;BME280;5880;52.342;9.662;2022-12-10T09:47:38;100445.97;;;5.01;59.15
11648;BME280;5880;52.342;9.662;2022-12-10T09:50:22;100448.47;;;5.03;58.90
11648;BME280;5880;52.342;9.662;2022-12-10T09:52:50;100439.50;;;5.02;58.99
11648;BME280;5880;52.342;9.662;2022-12-10T09:55:35;100451.16;;;5.03;58.99
11648;BME280;5880;52.342;9.662;2022-12-10T09:58:04;100444.91;;;5.02;58.95
11648;BME280;5880;52.342;9.662;2022-12-10T10:00:40;100443.03;;;5.03;58.57
11648;BME280;5880;52.342;9.662;2022-12-10T10:03:13;100442.03;;;5.04;59.24
11648;BME280;5880;52.342;9.662;2022-12-10T10:05:48;100441.19;;;5.03;59.08
11648;BME280;5880;52.342;9.662;2022-12-10T10:08:36;100429.06;;;4.99;59.02
11648;BME280;5880;52.342;9.662;2022-12-10T10:11:04;100443.69;;;5.05;59.13
11648;BME280;5880;52.342;9.662;2022-12-10T10:13:40;100436.19;;;5.07;59.26
11648;BME280;5880;52.342;9.662;2022-12-10T10:16:32;100439.09;;;5.05;59.00
11648;BME280;5880;52.342;9.662;2022-12-10T10:19:04;100441.38;;;5.02;58.79
11648;BME280;5880;52.342;9.662;2022-12-10T10:21:38;100438.84;;;5.00;59.06
11648;BME280;5880;52.342;9.662;2022-12-10T10:24:07;100444.28;;;5.00;59.02
11648;BME280;5880;52.342;9.662;2022-12-10T10:26:36;100438.63;;;4.95;59.27
11648;BME280;5880;52.342;9.662;2022-12-10T10:29:08;100435.91;;;4.95;59.06
11648;BME280;5880;52.342;9.662;2022-12-10T10:31:38;100441.97;;;4.97;59.14
11648;BME280;5880;52.342;9.662;2022-12-10T10:34:13;100438.22;;;4.98;59.36
11648;BME280;5880;52.342;9.662;2022-12-10T10:36:41;100443.63;;;4.98;59.07
11648;BME280;5880;52.342;9.662;2022-12-10T10:41:45;100439.09;;;4.99;59.47
11648;BME280;5880;52.342;9.662;2022-12-10T10:44:18;100441.97;;;4.97;59.38
11648;BME280;5880;52.342;9.662;2022-12-10T10:46:48;100441.34;;;4.95;59.12
11648;BME280;5880;52.342;9.662;2022-12-10T10:49:22;100443.22;;;4.95;59.31
11648;BME280;5880;52.342;9.662;2022-12-10T10:51:50;100442.38;;;4.94;59.31
11648;BME280;5880;52.342;9.662;2022-12-10T10:54:41;100447.59;;;4.96;59.21
11648;BME280;5880;52.342;9.662;2022-12-10T10:57:36;100448.63;;;4.95;59.26
11648;BME280;5880;52.342;9.662;2022-12-10T11:00:20;100449.06;;;4.98;58.83
11648;BME280;5880;52.342;9.662;2022-12-10T11:02:48;100447.41;;;4.97;59.56
11648;BME280;5880;52.342;9.662;2022-12-10T11:05:27;100454.69;;;4.97;59.18
11648;BME280;5880;52.342;9.662;2022-12-10T11:08:01;100454.47;;;4.98;59.12
11648;BME280;5880;52.342;9.662;2022-12-10T11:10:29;100460.53;;;5.00;59.26
11648;BME280;5880;52.342;9.662;2022-12-10T11:15:33;100457.44;;;5.03;59.29
11648;BME280;5880;52.342;9.662;2022-12-10T11:18:00;100448.47;;;5.03;58.70
11648;BME280;5880;52.342;9.662;2022-12-10T11:20:32;100451.16;;;5.03;58.86
11648;BME280;5880;52.342;9.662;2022-12-10T11:23:04;100448.47;;;5.03;58.98
11648;BME280;5880;52.342;9.662;2022-12-10T11:37:49;100446.34;;;4.98;59.35
11648;BME280;5880;52.342;9.662;2022-12-10T11:49:28;100451.75;;;4.98;59.57
11648;BME280;5880;52.342;9.662;2022-12-10T11:52:15;100445.53;;;4.98;59.10
11648;BME280;5880;52.342;9.662;2022-12-10T12:00:21;100437.81;;;4.95;59.33
11648;BME280;5880;52.342;9.662;2022-12-10T12:06:06;100452.00;;;4.97;59.11
11648;BME280;5880;52.342;9.662;2022-12-10T12:14:54;100462.31;;;4.86;59.16
11648;BME280;5880;52.342;9.662;2022-12-10T12:17:28;100451.50;;;4.86;59.09
11648;BME280;5880;52.342;9.662;2022-12-10T12:20:14;100458.38;;;4.89;59.46
11648;BME280;5880;52.342;9.662;2022-12-10T12:22:50;100456.53;;;4.90;59.40
11648;BME280;5880;52.342;9.662;2022-12-10T12:25:35;100455.06;;;4.94;59.46
11648;BME280;5880;52.342;9.662;2022-12-10T12:30:46;100448.19;;;4.91;59.02
11648;BME280;5880;52.342;9.662;2022-12-10T12:33:34;100458.22;;;4.97;59.07
11648;BME280;5880;52.342;9.662;2022-12-10T12:36:15;100450.09;;;4.97;59.19
11648;BME280;5880;52.342;9.662;2022-12-10T12:39:05;100452.63;;;4.99;58.99
11648;BME280;5880;52.342;9.662;2022-12-10T12:44:27;100446.78;;;5.02;59.14
11648;BME280;5880;52.342;9.662;2022-12-10T12:47:16;100444.72;;;5.04;59.03
11648;BME280;5880;52.342;9.662;2022-12-10T12:49:45;100434.50;;;4.99;58.95
11648;BME280;5880;52.342;9.662;2022-12-10T12:52:44;100443.31;;;5.08;58.89
11648;BME280;5880;52.342;9.662;2022-12-10T12:55:44;100443.91;;;5.10;58.88
11648;BME280;5880;52.342;9.662;2022-12-10T12:58:31;100445.16;;;5.07;58.88
11648;BME280;5880;52.342;9.662;2022-12-10T13:01:26;100433.66;;;4.99;58.69
11648;BME280;5880;52.342;9.662;2022-12-10T13:03:55;100447.63;;;5.02;59.15
11648;BME280;5880;52.342;9.662;2022-12-10T13:06:29;100446.38;;;5.05;58.80
11648;BME280;5880;52.342;9.662;2022-12-10T13:22:10;100465.84;;;5.15;58.78
11648;BME280;5880;52.342;9.662;2022-12-10T13:29:55;100463.97;;;5.16;59.13
11648;BME280;5880;52.342;9.662;2022-12-10T13:32:24;100461.66;;;5.19;58.85
11648;BME280;5880;52.342;9.662;2022-12-10T13:42:44;100461.94;;;5.24;58.69
11648;BME280;5880;52.342;9.662;2022-12-10T13:45:34;100464.84;;;5.23;58.85
11648;BME280;5880;52.342;9.662;2022-12-10T13:53:48;100470.88;;;5.25;58.77
11648;BME280;5880;52.342;9.662;2022-12-10T13:56:27;100476.09;;;5.26;58.87
11648;BME280;5880;52.342;9.662;2022-12-10T14:08:18;100485.09;;;5.27;58.80
11648;BME280;5880;52.342;9.662;2022-12-10T14:10:46;100486.75;;;5.28;58.75
11648;BME280;5880;52.342;9.662;2022-12-10T14:13:18;100488.41;;;5.29;58.43
11648;BME280;5880;52.342;9.662;2022-12-10T14:15:58;100498.41;;;5.28;58.69
11648;BME280;5880;52.342;9.662;2022-12-10T14:18:28;100493.22;;;5.27;58.88
11648;BME280;5880;52.342;9.662;2022-12-10T14:20:56;100496.75;;;5.27;58.60
11648;BME280;5880;52.342;9.662;2022-12-10T14:23:30;100494.22;;;5.26;58.73
11648;BME280;5880;52.342;9.662;2022-12-10T14:26:19;100498.81;;;5.25;58.53
11648;BME280;5880;52.342;9.662;2022-12-10T14:28:50;100508.00;;;5.24;58.40
11648;BME280;5880;52.342;9.662;2022-12-10T14:31:26;100500.88;;;5.23;58.75
11648;BME280;5880;52.342;9.662;2022-12-10T14:33:59;100502.78;;;5.23;58.53
11648;BME280;5880;52.342;9.662;2022-12-10T14:36:52;100496.31;;;5.24;58.69
11648;BME280;5880;52.342;9.662;2022-12-10T14:39:31;100501.53;;;5.25;58.31
11648;BME280;5880;52.342;9.662;2022-12-10T14:42:02;100500.47;;;5.26;58.75
11648;BME280;5880;52.342;9.662;2022-12-10T14:44:31;100494.88;;;5.28;58.52
11648;BME280;5880;52.342;9.662;2022-12-10T14:47:13;100496.53;;;5.29;58.62
11648;BME280;5880;52.342;9.662;2022-12-10T14:49:47;100495.50;;;5.30;58.38
11648;BME280;5880;52.342;9.662;2022-12-10T14:52:24;100496.97;;;5.33;58.55
11648;BME280;5880;52.342;9.662;2022-12-10T14:54:52;100496.34;;;5.31;58.44
11648;BME280;5880;52.342;9.662;2022-12-10T14:57:37;100494.06;;;5.34;58.54
11648;BME280;5880;52.342;9.662;2022-12-10T15:00:10;100502.22;;;5.34;58.55
11648;BME280;5880;52.342;9.662;2022-12-10T15:02:42;100504.91;;;5.34;58.54
11648;BME280;5880;52.342;9.662;2022-12-10T15:05:17;100501.34;;;5.34;58.58
11648;BME280;5880;52.342;9.662;2022-12-10T15:08:01;100495.31;;;5.32;58.40
11648;BME280;5880;52.342;9.662;2022-12-10T15:10:53;100502.84;;;5.36;58.52
11648;BME280;5880;52.342;9.662;2022-12-10T15:13:28;100509.28;;;5.35;58.45
11648;BME280;5880;52.342;9.662;2022-12-10T15:15:55;100503.63;;;5.30;58.43
11648;BME280;5880;52.342;9.662;2022-12-10T15:18:37;100506.16;;;5.32;58.24
11648;BME280;5880;52.342;9.662;2022-12-10T15:21:14;100505.28;;;5.31;58.51